New Haven, CT (06512)

12:31 PM EDT on October 01, 2014 (GMT -0400)
Beacon Hill/Lake Saltonstall - Branford | Change Station
CLOSE
Current Station
Personal Weather Station
Location: Branford, CT
Elevation: 20 ft
Nearby Weather Stations

Elev 20 ft 41.28 °N, 72.86 °W | Updated 20 seconds ago

Light Rain
Light Rain
59.1 °F
Feels Like 59.1 °F
N
5.0
Wind Variable Wind from North
Gusts 6.0 mph

Today
High -- | Low -- °F
--% Chance of Precip.
Yesterday
High -- | Low -- °F
Precip. -- in
6:48 AM 6:33 PM
Waxing Crescent, 49% visible
Pressure 30.04 in
Visibility 10.0 miles
Clouds Mostly Cloudy 700 ft
Overcast 1600 ft
Dew Point 59 °F
Humidity 100%
Rainfall 0.56 in
Snow Depth Not available.
UV 2 out of 12
Pollen .40 out of 12
Ozone Good
PM2.5 Good
Flu Activity Not available.
METAR KHVN 011553Z 01010KT 10SM -RA BKN007 OVC016 17/14 A3004 RMK AO2 RAB33 SLP173 P0000 T01670144

More Conditions Fewer Conditions

Pressure 30.04 in
Visibility 10.0 miles
Clouds Mostly Cloudy 700 ft
Overcast 1600 ft
Dew Point 59 °F
Humidity 100%
Rainfall 0.56 in
Snow Depth Not available.
UV 2 out of 12
Pollen .40 out of 12
Ozone Good
PM2.5 Good
Flu Activity Not available.
METAR KHVN 011553Z 01010KT 10SM -RA BKN007 OVC016 17/14 A3004 RMK AO2 RAB33 SLP173 P0000 T01670144

More Conditions Fewer Conditions

10-Day Weather Forecast

Almanac

Astronomy

Oct. 01, 2014 Rise Set
Actual Time 6:48 AM EDT 6:33 PM EDT
Civil Twilight 6:20 AM EDT 7:00 PM EDT
Nautical Twilight 5:48 AM EDT 7:32 PM EDT
Astronomical Twilight 5:16 AM EDT 8:05 PM EDT
Moon 1:49 PM EDT 11:59 PM EDT
Length of Visible Light 12h 40m
Length of Day
11h 45m
Tomorrow will be 2m 44s shorter.
Waxing Crescent, 49% of the Moon is Illuminated
Today
Waxing Crescent
Oct 1
First Quarter
Oct 8
Full
Oct 15
Last Quarter
Oct 23
New

Today's Extremes

State Highs State Lows

Community

WunderPhotos

Upload Photos

1,757,981 photos uploaded!

WunderBlogs® & News

By Dr. Jeff Masters
Director of Meteorology, Weather Underground
By Kari Strenfel
Meteorologist, Weather Underground
By Christopher C. Burt
Weather Historian, Weather Underground
October 1, 2014
October 1, 2014
October 1, 2014

Nearby

Air Quality

  Air Quality AQ Index Pollutant
Yesterday Good
PM10
Yesterday Good
OZONE
Current Good
PM2.5
Current Good
OZONE
Wednesday Good
PM2.5
Wednesday Good
OZONE

Snow Depth

Station Depth Elevation
No new snow has been reported.

Earthquake Activity

City Distance Mag. Time & Date
No recent earthquake activity has been reported nearby.
Minimum magnitude displayed is 2.5.

Coastal Water Temperatures

Place Temperature
New London, CT 66.9 °F
Newport, RI 64.9 °F
Quonset Point, RI 64.9 °F
Conimicut Light, RI 66.0 °F
Providence, RI 66.0 °F

Nearby Weather Stations